sensor_id;sensor_type;location;lat;lon;timestamp;pressure;altitude;pressure_sealevel;temperature;humidity
17230;BME280;8731;50.364;8.958;2023-07-29T00:01:09;99441.56;;;20.04;96.90
17230;BME280;8731;50.364;8.958;2023-07-29T00:05:33;99454.09;;;19.95;99.42
17230;BME280;8731;50.364;8.958;2023-07-29T00:09:56;99463.81;;;20.01;97.47
17230;BME280;8731;50.364;8.958;2023-07-29T00:14:19;99459.53;;;20.01;98.05
17230;BME280;8731;50.364;8.958;2023-07-29T00:18:41;99460.97;;;19.95;97.16
17230;BME280;8731;50.364;8.958;2023-07-29T00:23:06;99461.03;;;19.96;98.81
17230;BME280;8731;50.364;8.958;2023-07-29T00:27:28;99456.50;;;19.90;98.22
17230;BME280;8731;50.364;8.958;2023-07-29T00:31:50;99450.44;;;19.90;100.00
17230;BME280;8731;50.364;8.958;2023-07-29T00:36:14;99457.09;;;19.85;100.00
17230;BME280;8731;50.364;8.958;2023-07-29T00:40:38;99443.78;;;19.95;99.22
17230;BME280;8731;50.364;8.958;2023-07-29T00:45:01;99438.47;;;19.92;100.00
17230;BME280;8731;50.364;8.958;2023-07-29T00:49:26;99439.16;;;19.88;98.82
17230;BME280;8731;50.364;8.958;2023-07-29T00:53:49;99436.03;;;19.95;99.73
17230;BME280;8731;50.364;8.958;2023-07-29T00:58:13;99435.34;;;19.99;100.00
17230;BME280;8731;50.364;8.958;2023-07-29T01:02:36;99423.47;;;20.04;99.40
17230;BME280;8731;50.364;8.958;2023-07-29T01:07:05;99429.78;;;19.90;100.00
17230;BME280;8731;50.364;8.958;2023-07-29T01:11:44;99415.34;;;19.95;99.37
17230;BME280;8731;50.364;8.958;2023-07-29T01:16:21;99418.63;;;19.91;100.00
17230;BME280;8731;50.364;8.958;2023-07-29T01:20:47;99415.63;;;19.82;100.00
17230;BME280;8731;50.364;8.958;2023-07-29T01:25:12;99409.88;;;19.87;100.00
17230;BME280;8731;50.364;8.958;2023-07-29T01:29:35;99404.41;;;19.81;100.00
17230;BME280;8731;50.364;8.958;2023-07-29T01:33:59;99402.38;;;19.93;100.00
17230;BME280;8731;50.364;8.958;2023-07-29T01:38:29;99407.06;;;19.83;98.59
17230;BME280;8731;50.364;8.958;2023-07-29T01:42:57;99399.03;;;19.96;98.13
17230;BME280;8731;50.364;8.958;2023-07-29T01:47:20;99395.25;;;19.88;96.77
17230;BME280;8731;50.364;8.958;2023-07-29T01:51:44;99396.31;;;19.93;97.86
17230;BME280;8731;50.364;8.958;2023-07-29T01:56:06;99390.72;;;19.84;97.49
17230;BME280;8731;50.364;8.958;2023-07-29T02:00:32;99375.66;;;19.74;99.52
17230;BME280;8731;50.364;8.958;2023-07-29T02:04:55;99384.63;;;19.82;98.09
17230;BME280;8731;50.364;8.958;2023-07-29T02:09:17;99382.03;;;19.82;98.21
17230;BME280;8731;50.364;8.958;2023-07-29T02:13:40;99380.47;;;19.85;97.70
17230;BME280;8731;50.364;8.958;2023-07-29T02:18:04;99363.44;;;19.70;99.59
17230;BME280;8731;50.364;8.958;2023-07-29T02:22:27;99360.78;;;19.68;98.47
17230;BME280;8731;50.364;8.958;2023-07-29T02:26:50;99359.09;;;19.69;99.85
17230;BME280;8731;50.364;8.958;2023-07-29T02:31:15;99365.28;;;19.72;98.35
17230;BME280;8731;50.364;8.958;2023-07-29T02:35:41;99370.31;;;19.69;99.87
17230;BME280;8731;50.364;8.958;2023-07-29T02:40:05;99363.03;;;19.60;99.56
17230;BME280;8731;50.364;8.958;2023-07-29T02:44:29;99354.75;;;19.68;99.58
17230;BME280;8731;50.364;8.958;2023-07-29T02:48:54;99347.81;;;19.67;100.00
17230;BME280;8731;50.364;8.958;2023-07-29T02:53:18;99339.13;;;19.65;99.76
17230;BME280;8731;50.364;8.958;2023-07-29T02:57:40;99339.25;;;19.68;99.26
17230;BME280;8731;50.364;8.958;2023-07-29T03:02:03;99338.44;;;19.69;97.70
17230;BME280;8731;50.364;8.958;2023-07-29T03:06:26;99339.84;;;19.62;98.50
17230;BME280;8731;50.364;8.958;2023-07-29T03:10:50;99344.88;;;19.59;99.75
17230;BME280;8731;50.364;8.958;2023-07-29T03:15:12;99338.25;;;19.64;100.00
17230;BME280;8731;50.364;8.958;2023-07-29T03:19:35;99343.31;;;19.62;100.00
17230;BME280;8731;50.364;8.958;2023-07-29T03:23:58;99326.09;;;19.63;100.00
17230;BME280;8731;50.364;8.958;2023-07-29T03:28:22;99333.72;;;19.60;100.00
17230;BME280;8731;50.364;8.958;2023-07-29T03:32:45;99320.06;;;19.62;99.54
17230;BME280;8731;50.364;8.958;2023-07-29T03:37:08;99318.47;;;19.65;99.41
17230;BME280;8731;50.364;8.958;2023-07-29T03:41:31;99309.81;;;19.64;99.54
17230;BME280;8731;50.364;8.958;2023-07-29T03:45:55;99303.84;;;19.65;100.00
17230;BME280;8731;50.364;8.958;2023-07-29T03:50:17;99293.16;;;19.57;100.00
17230;BME280;8731;50.364;8.958;2023-07-29T03:54:40;99290.84;;;19.63;100.00
17230;BME280;8731;50.364;8.958;2023-07-29T03:59:03;99298.72;;;19.47;100.00
17230;BME280;8731;50.364;8.958;2023-07-29T04:03:29;99300.78;;;19.54;100.00
17230;BME280;8731;50.364;8.958;2023-07-29T04:07:51;99301.31;;;19.47;100.00
17230;BME280;8731;50.364;8.958;2023-07-29T04:12:15;99306.41;;;19.46;100.00
17230;BME280;8731;50.364;8.958;2023-07-29T04:16:41;99299.94;;;19.36;100.00
17230;BME280;8731;50.364;8.958;2023-07-29T04:21:05;99301.94;;;19.42;100.00
17230;BME280;8731;50.364;8.958;2023-07-29T04:25:28;99296.53;;;19.37;100.00
17230;BME280;8731;50.364;8.958;2023-07-29T04:29:50;99300.06;;;19.39;100.00
17230;BME280;8731;50.364;8.958;2023-07-29T04:34:13;99304.47;;;19.40;100.00
17230;BME280;8731;50.364;8.958;2023-07-29T04:38:37;99302.81;;;19.42;100.00
17230;BME280;8731;50.364;8.958;2023-07-29T04:43:00;99309.00;;;19.46;100.00
17230;BME280;8731;50.364;8.958;2023-07-29T04:47:23;99305.25;;;19.39;100.00
17230;BME280;8731;50.364;8.958;2023-07-29T04:51:45;99297.91;;;19.48;100.00
17230;BME280;8731;50.364;8.958;2023-07-29T04:56:09;99297.22;;;19.52;100.00
17230;BME280;8731;50.364;8.958;2023-07-29T05:00:32;99292.34;;;19.58;100.00
17230;BME280;8731;50.364;8.958;2023-07-29T05:04:55;99291.59;;;19.61;100.00
17230;BME280;8731;50.364;8.958;2023-07-29T05:09:19;99293.63;;;19.68;100.00
17230;BME280;8731;50.364;8.958;2023-07-29T05:13:44;99291.94;;;19.69;100.00
17230;BME280;8731;50.364;8.958;2023-07-29T05:18:07;99280.28;;;19.78;100.00
17230;BME280;8731;50.364;8.958;2023-07-29T05:22:29;99286.19;;;19.76;100.00
17230;BME280;8731;50.364;8.958;2023-07-29T05:26:53;99288.66;;;19.73;100.00
17230;BME280;8731;50.364;8.958;2023-07-29T05:31:17;99274.34;;;19.81;100.00
17230;BME280;8731;50.364;8.958;2023-07-29T05:35:40;99288.53;;;19.90;100.00
17230;BME280;8731;50.364;8.958;2023-07-29T05:40:03;99303.16;;;19.90;100.00
17230;BME280;8731;50.364;8.958;2023-07-29T05:44:27;99309.16;;;19.89;100.00
17230;BME280;8731;50.364;8.958;2023-07-29T05:48:52;99308.47;;;19.93;100.00
17230;BME280;8731;50.364;8.958;2023-07-29T05:53:14;99303.34;;;19.95;100.00
17230;BME280;8731;50.364;8.958;2023-07-29T05:57:37;99314.38;;;19.90;100.00
17230;BME280;8731;50.364;8.958;2023-07-29T06:02:01;99320.69;;;19.97;100.00
17230;BME280;8731;50.364;8.958;2023-07-29T06:06:26;99323.75;;;20.09;100.00
17230;BME280;8731;50.364;8.958;2023-07-29T06:10:48;99335.69;;;20.06;100.00
17230;BME280;8731;50.364;8.958;2023-07-29T06:15:11;99335.44;;;20.00;100.00
17230;BME280;8731;50.364;8.958;2023-07-29T06:19:34;99333.53;;;19.96;100.00
17230;BME280;8731;50.364;8.958;2023-07-29T06:23:59;99340.41;;;19.95;100.00
17230;BME280;8731;50.364;8.958;2023-07-29T06:28:21;99339.78;;;20.01;100.00
17230;BME280;8731;50.364;8.958;2023-07-29T06:32:44;99328.84;;;20.08;100.00
17230;BME280;8731;50.364;8.958;2023-07-29T06:37:07;99339.25;;;20.09;100.00
17230;BME280;8731;50.364;8.958;2023-07-29T06:41:31;99341.66;;;20.26;100.00
17230;BME280;8731;50.364;8.958;2023-07-29T06:45:57;99339.91;;;20.24;100.00
17230;BME280;8731;50.364;8.958;2023-07-29T06:50:20;99349.59;;;20.30;100.00
17230;BME280;8731;50.364;8.958;2023-07-29T06:54:43;99347.22;;;20.35;100.00
17230;BME280;8731;50.364;8.958;2023-07-29T06:59:07;99351.47;;;20.34;100.00
17230;BME280;8731;50.364;8.958;2023-07-29T07:03:29;99330.25;;;20.20;100.00
17230;BME280;8731;50.364;8.958;2023-07-29T07:07:52;99321.97;;;20.29;100.00
17230;BME280;8731;50.364;8.958;2023-07-29T07:12:14;99313.78;;;20.39;100.00
17230;BME280;8731;50.364;8.958;2023-07-29T07:16:38;99314.28;;;20.31;100.00
17230;BME280;8731;50.364;8.958;2023-07-29T07:21:01;99335.63;;;20.46;100.00
17230;BME280;8731;50.364;8.958;2023-07-29T07:25:24;99358.34;;;20.34;100.00
17230;BME280;8731;50.364;8.958;2023-07-29T07:29:47;99363.53;;;20.34;100.00
17230;BME280;8731;50.364;8.958;2023-07-29T07:34:12;99358.34;;;20.34;100.00
17230;BME280;8731;50.364;8.958;2023-07-29T07:38:36;99348.78;;;20.31;100.00
17230;BME280;8731;50.364;8.958;2023-07-29T07:42:59;99331.09;;;20.19;100.00
17230;BME280;8731;50.364;8.958;2023-07-29T07:47:21;99324.63;;;20.10;100.00
17230;BME280;8731;50.364;8.958;2023-07-29T07:51:45;99335.91;;;20.33;100.00
17230;BME280;8731;50.364;8.958;2023-07-29T07:56:08;99352.78;;;20.44;100.00
17230;BME280;8731;50.364;8.958;2023-07-29T08:00:30;99357.38;;;20.51;100.00
17230;BME280;8731;50.364;8.958;2023-07-29T08:04:53;99365.53;;;20.60;100.00
17230;BME280;8731;50.364;8.958;2023-07-29T08:09:17;99373.22;;;20.59;100.00
17230;BME280;8731;50.364;8.958;2023-07-29T08:13:39;99360.75;;;20.71;100.00
17230;BME280;8731;50.364;8.958;2023-07-29T08:18:01;99370.41;;;20.75;100.00
17230;BME280;8731;50.364;8.958;2023-07-29T08:22:24;99374.81;;;20.77;100.00
17230;BME280;8731;50.364;8.958;2023-07-29T08:26:48;99367.31;;;20.83;100.00
17230;BME280;8731;50.364;8.958;2023-07-29T08:31:10;99359.28;;;20.77;100.00
17230;BME280;8731;50.364;8.958;2023-07-29T08:35:33;99362.59;;;20.96;100.00
17230;BME280;8731;50.364;8.958;2023-07-29T08:39:56;99361.66;;;20.94;100.00
17230;BME280;8731;50.364;8.958;2023-07-29T08:44:21;99371.75;;;21.55;100.00
17230;BME280;8731;50.364;8.958;2023-07-29T08:48:45;99369.19;;;21.56;100.00
17230;BME280;8731;50.364;8.958;2023-07-29T08:53:09;99367.09;;;21.70;100.00
17230;BME280;8731;50.364;8.958;2023-07-29T08:57:32;99361.50;;;21.83;100.00
17230;BME280;8731;50.364;8.958;2023-07-29T09:01:57;99351.22;;;22.10;99.13
17230;BME280;8731;50.364;8.958;2023-07-29T09:06:20;99347.59;;;22.30;97.59
17230;BME280;8731;50.364;8.958;2023-07-29T09:10:45;99349.78;;;22.72;95.19
17230;BME280;8731;50.364;8.958;2023-07-29T09:15:09;99345.66;;;22.79;93.99
17230;BME280;8731;50.364;8.958;2023-07-29T09:19:34;99346.97;;;22.93;94.83
17230;BME280;8731;50.364;8.958;2023-07-29T09:23:56;99344.75;;;23.35;89.55
17230;BME280;8731;50.364;8.958;2023-07-29T09:28:23;99342.41;;;24.09;87.60
17230;BME280;8731;50.364;8.958;2023-07-29T09:32:54;99337.38;;;24.49;85.89
17230;BME280;8731;50.364;8.958;2023-07-29T09:37:20;99330.84;;;25.04;84.50
17230;BME280;8731;50.364;8.958;2023-07-29T09:41:47;99336.09;;;24.68;81.85
17230;BME280;8731;50.364;8.958;2023-07-29T09:46:10;99354.00;;;24.92;82.17
17230;BME280;8731;50.364;8.958;2023-07-29T09:50:33;99338.81;;;25.11;78.62
17230;BME280;8731;50.364;8.958;2023-07-29T09:54:57;99337.28;;;25.65;77.72
17230;BME280;8731;50.364;8.958;2023-07-29T09:59:23;99322.84;;;25.81;76.65
17230;BME280;8731;50.364;8.958;2023-07-29T10:03:45;99332.88;;;26.08;74.07
17230;BME280;8731;50.364;8.958;2023-07-29T10:08:09;99334.63;;;26.09;74.18
17230;BME280;8731;50.364;8.958;2023-07-29T10:12:35;99327.59;;;26.05;72.64
17230;BME280;8731;50.364;8.958;2023-07-29T10:16:58;99325.84;;;26.57;73.36
17230;BME280;8731;50.364;8.958;2023-07-29T10:21:22;99313.75;;;26.09;70.54
17230;BME280;8731;50.364;8.958;2023-07-29T10:25:47;99306.88;;;26.70;72.83
17230;BME280;8731;50.364;8.958;2023-07-29T10:30:16;99293.47;;;27.06;70.99
17230;BME280;8731;50.364;8.958;2023-07-29T10:34:39;99285.41;;;26.92;69.77
17230;BME280;8731;50.364;8.958;2023-07-29T10:39:03;99290.34;;;26.71;70.01
17230;BME280;8731;50.364;8.958;2023-07-29T10:43:34;99284.38;;;26.80;69.06
17230;BME280;8731;50.364;8.958;2023-07-29T10:48:00;99286.88;;;26.72;70.13
17230;BME280;8731;50.364;8.958;2023-07-29T10:52:31;99294.53;;;26.58;66.36
17230;BME280;8731;50.364;8.958;2023-07-29T10:57:03;99290.88;;;26.47;68.19
17230;BME280;8731;50.364;8.958;2023-07-29T11:01:28;99287.13;;;26.90;67.75
17230;BME280;8731;50.364;8.958;2023-07-29T11:05:53;99288.00;;;26.91;65.08
17230;BME280;8731;50.364;8.958;2023-07-29T11:10:16;99299.59;;;26.49;68.16
17230;BME280;8731;50.364;8.958;2023-07-29T11:14:39;99300.91;;;26.23;68.58
17230;BME280;8731;50.364;8.958;2023-07-29T11:19:01;99303.22;;;26.03;67.96
17230;BME280;8731;50.364;8.958;2023-07-29T11:23:30;99299.44;;;26.37;68.65
17230;BME280;8731;50.364;8.958;2023-07-29T11:27:55;99306.91;;;26.16;68.41
17230;BME280;8731;50.364;8.958;2023-07-29T11:32:18;99304.59;;;25.81;66.71
17230;BME280;8731;50.364;8.958;2023-07-29T11:36:45;99300.75;;;26.12;68.23
17230;BME280;8731;50.364;8.958;2023-07-29T11:41:09;99292.91;;;26.12;69.13
17230;BME280;8731;50.364;8.958;2023-07-29T11:45:31;99282.94;;;25.87;67.01
17230;BME280;8731;50.364;8.958;2023-07-29T11:49:58;99283.31;;;25.61;67.18
17230;BME280;8731;50.364;8.958;2023-07-29T11:54:21;99284.91;;;26.01;68.29
17230;BME280;8731;50.364;8.958;2023-07-29T11:58:45;99293.38;;;25.88;66.86
17230;BME280;8731;50.364;8.958;2023-07-29T12:03:09;99298.38;;;25.76;67.25
17230;BME280;8731;50.364;8.958;2023-07-29T12:07:32;99287.41;;;26.48;68.34
17230;BME280;8731;50.364;8.958;2023-07-29T12:11:55;99277.25;;;26.70;67.84
17230;BME280;8731;50.364;8.958;2023-07-29T12:16:19;99288.56;;;26.67;64.31
17230;BME280;8731;50.364;8.958;2023-07-29T12:20:41;99298.03;;;26.60;63.49
17230;BME280;8731;50.364;8.958;2023-07-29T12:25:04;99304.78;;;26.46;63.19
17230;BME280;8731;50.364;8.958;2023-07-29T12:29:27;99321.03;;;26.28;65.80
17230;BME280;8731;50.364;8.958;2023-07-29T12:33:56;99314.94;;;26.28;66.86
17230;BME280;8731;50.364;8.958;2023-07-29T12:38:20;99328.31;;;26.48;69.83
17230;BME280;8731;50.364;8.958;2023-07-29T12:42:43;99304.81;;;26.49;71.25
17230;BME280;8731;50.364;8.958;2023-07-29T12:47:06;99306.00;;;26.14;72.88
17230;BME280;8731;50.364;8.958;2023-07-29T12:51:33;99297.25;;;26.66;72.51
17230;BME280;8731;50.364;8.958;2023-07-29T12:55:56;99289.41;;;26.10;72.14
17230;BME280;8731;50.364;8.958;2023-07-29T13:00:21;99294.69;;;25.65;72.02
17230;BME280;8731;50.364;8.958;2023-07-29T13:04:44;99299.28;;;25.78;70.10
17230;BME280;8731;50.364;8.958;2023-07-29T13:09:08;99304.53;;;26.31;71.33
17230;BME280;8731;50.364;8.958;2023-07-29T13:13:31;99300.63;;;26.05;70.92
17230;BME280;8731;50.364;8.958;2023-07-29T13:17:54;99287.16;;;26.33;69.23
17230;BME280;8731;50.364;8.958;2023-07-29T13:22:17;99287.50;;;26.01;67.86
17230;BME280;8731;50.364;8.958;2023-07-29T13:26:43;99292.44;;;25.83;70.77
17230;BME280;8731;50.364;8.958;2023-07-29T13:31:05;99286.84;;;26.13;69.72
17230;BME280;8731;50.364;8.958;2023-07-29T13:35:30;99289.78;;;25.35;70.56
17230;BME280;8731;50.364;8.958;2023-07-29T13:39:53;99283.38;;;25.64;71.29
17230;BME280;8731;50.364;8.958;2023-07-29T13:44:17;99285.25;;;25.70;70.12
17230;BME280;8731;50.364;8.958;2023-07-29T13:48:40;99289.16;;;25.48;68.82
17230;BME280;8731;50.364;8.958;2023-07-29T13:53:03;99289.47;;;25.20;70.56
17230;BME280;8731;50.364;8.958;2023-07-29T13:57:25;99291.78;;;25.50;70.25
17230;BME280;8731;50.364;8.958;2023-07-29T14:01:49;99293.09;;;25.72;69.04
17230;BME280;8731;50.364;8.958;2023-07-29T14:06:13;99287.38;;;25.94;69.44
17230;BME280;8731;50.364;8.958;2023-07-29T14:10:36;99289.22;;;25.53;70.44
17230;BME280;8731;50.364;8.958;2023-07-29T14:14:58;99286.19;;;26.26;68.88
17230;BME280;8731;50.364;8.958;2023-07-29T14:19:22;99282.63;;;26.21;68.47
17230;BME280;8731;50.364;8.958;2023-07-29T14:23:45;99279.19;;;26.25;67.98
17230;BME280;8731;50.364;8.958;2023-07-29T14:28:08;99271.59;;;25.85;66.66
17230;BME280;8731;50.364;8.958;2023-07-29T14:32:30;99268.13;;;25.86;65.55
17230;BME280;8731;50.364;8.958;2023-07-29T14:36:54;99271.75;;;26.50;66.13
17230;BME280;8731;50.364;8.958;2023-07-29T14:41:16;99255.84;;;26.33;65.42
17230;BME280;8731;50.364;8.958;2023-07-29T14:45:39;99256.97;;;25.96;65.68
17230;BME280;8731;50.364;8.958;2023-07-29T14:50:02;99246.41;;;26.41;65.41
17230;BME280;8731;50.364;8.958;2023-07-29T14:54:26;99239.53;;;26.48;64.04
17230;BME280;8731;50.364;8.958;2023-07-29T14:58:49;99243.25;;;26.65;60.30
17230;BME280;8731;50.364;8.958;2023-07-29T15:03:12;99271.06;;;26.60;61.87
17230;BME280;8731;50.364;8.958;2023-07-29T15:07:34;99279.75;;;26.59;63.93
17230;BME280;8731;50.364;8.958;2023-07-29T15:11:59;99289.06;;;25.89;65.12
17230;BME280;8731;50.364;8.958;2023-07-29T15:16:23;99296.91;;;25.90;66.06
17230;BME280;8731;50.364;8.958;2023-07-29T15:20:46;99290.84;;;25.91;65.92
17230;BME280;8731;50.364;8.958;2023-07-29T15:25:09;99293.97;;;25.72;66.27
17230;BME280;8731;50.364;8.958;2023-07-29T15:29:33;99298.41;;;25.78;65.45
17230;BME280;8731;50.364;8.958;2023-07-29T15:33:55;99297.69;;;25.85;65.11
17230;BME280;8731;50.364;8.958;2023-07-29T15:38:19;99295.88;;;25.81;63.71
17230;BME280;8731;50.364;8.958;2023-07-29T15:42:42;99291.56;;;25.83;63.43
17230;BME280;8731;50.364;8.958;2023-07-29T15:47:06;99285.28;;;25.73;64.48
17230;BME280;8731;50.364;8.958;2023-07-29T15:51:28;99280.44;;;25.94;64.10
17230;BME280;8731;50.364;8.958;2023-07-29T15:55:51;99286.38;;;25.84;62.59
17230;BME280;8731;50.364;8.958;2023-07-29T16:00:14;99281.09;;;25.80;62.37
17230;BME280;8731;50.364;8.958;2023-07-29T16:04:38;99283.53;;;26.25;63.30
17230;BME280;8731;50.364;8.958;2023-07-29T16:09:01;99278.44;;;26.31;63.25
17230;BME280;8731;50.364;8.958;2023-07-29T16:13:26;99285.41;;;26.32;63.61
17230;BME280;8731;50.364;8.958;2023-07-29T16:17:49;99287.16;;;26.33;63.66
17230;BME280;8731;50.364;8.958;2023-07-29T16:22:17;99290.41;;;25.67;63.92
17230;BME280;8731;50.364;8.958;2023-07-29T16:26:39;99285.66;;;25.94;64.04
17230;BME280;8731;50.364;8.958;2023-07-29T16:31:02;99288.25;;;25.46;66.23
17230;BME280;8731;50.364;8.958;2023-07-29T16:35:25;99295.09;;;25.41;66.70
17230;BME280;8731;50.364;8.958;2023-07-29T16:39:51;99291.41;;;25.30;69.18
17230;BME280;8731;50.364;8.958;2023-07-29T16:44:13;99295.72;;;25.29;67.92
17230;BME280;8731;50.364;8.958;2023-07-29T16:48:37;99298.19;;;25.22;67.41
17230;BME280;8731;50.364;8.958;2023-07-29T16:52:59;99297.31;;;25.66;66.95
17230;BME280;8731;50.364;8.958;2023-07-29T16:57:23;99284.84;;;25.50;67.49
17230;BME280;8731;50.364;8.958;2023-07-29T17:01:46;99303.00;;;25.46;66.09
17230;BME280;8731;50.364;8.958;2023-07-29T17:06:09;99300.31;;;25.41;62.35
17230;BME280;8731;50.364;8.958;2023-07-29T17:10:32;99301.13;;;25.38;61.42
17230;BME280;8731;50.364;8.958;2023-07-29T17:14:56;99302.66;;;25.73;63.04
17230;BME280;8731;50.364;8.958;2023-07-29T17:19:18;99297.38;;;25.68;62.82
17230;BME280;8731;50.364;8.958;2023-07-29T17:23:41;99304.19;;;25.61;62.40
17230;BME280;8731;50.364;8.958;2023-07-29T17:28:05;99304.06;;;25.55;62.98
17230;BME280;8731;50.364;8.958;2023-07-29T17:32:29;99301.97;;;25.36;64.93
17230;BME280;8731;50.364;8.958;2023-07-29T17:36:52;99313.88;;;25.25;65.06
17230;BME280;8731;50.364;8.958;2023-07-29T17:41:14;99311.19;;;24.81;66.07
17230;BME280;8731;50.364;8.958;2023-07-29T17:45:36;99314.13;;;24.96;66.67
17230;BME280;8731;50.364;8.958;2023-07-29T17:50:05;99310.44;;;25.26;66.71
17230;BME280;8731;50.364;8.958;2023-07-29T17:54:28;99311.38;;;25.29;66.05
17230;BME280;8731;50.364;8.958;2023-07-29T17:58:51;99310.50;;;24.88;67.05
17230;BME280;8731;50.364;8.958;2023-07-29T18:03:13;99319.13;;;24.86;67.26
17230;BME280;8731;50.364;8.958;2023-07-29T18:07:38;99317.03;;;24.69;68.23
17230;BME280;8731;50.364;8.958;2023-07-29T18:12:01;99314.66;;;24.80;68.69
17230;BME280;8731;50.364;8.958;2023-07-29T18:16:23;99325.00;;;24.77;68.82
17230;BME280;8731;50.364;8.958;2023-07-29T18:20:48;99326.53;;;24.31;70.01
17230;BME280;8731;50.364;8.958;2023-07-29T18:25:12;99322.81;;;24.58;69.46
17230;BME280;8731;50.364;8.958;2023-07-29T18:29:35;99334.00;;;24.54;69.20
17230;BME280;8731;50.364;8.958;2023-07-29T18:33:58;99340.00;;;24.49;69.89
17230;BME280;8731;50.364;8.958;2023-07-29T18:38:21;99340.91;;;24.17;71.55
17230;BME280;8731;50.364;8.958;2023-07-29T18:42:45;99342.25;;;24.36;70.99
17230;BME280;8731;50.364;8.958;2023-07-29T18:47:07;99351.66;;;24.29;71.13
17230;BME280;8731;50.364;8.958;2023-07-29T18:51:30;99353.13;;;24.19;71.26
17230;BME280;8731;50.364;8.958;2023-07-29T18:55:53;99349.16;;;24.01;71.90
17230;BME280;8731;50.364;8.958;2023-07-29T19:00:17;99348.94;;;23.92;71.93
17230;BME280;8731;50.364;8.958;2023-07-29T19:04:40;99353.41;;;23.36;74.50
17230;BME280;8731;50.364;8.958;2023-07-29T19:09:07;99361.13;;;23.33;75.35
17230;BME280;8731;50.364;8.958;2023-07-29T19:13:30;99370.81;;;23.38;74.95
17230;BME280;8731;50.364;8.958;2023-07-29T19:17:54;99373.06;;;23.26;74.95
17230;BME280;8731;50.364;8.958;2023-07-29T19:22:17;99374.78;;;23.25;74.34
17230;BME280;8731;50.364;8.958;2023-07-29T19:26:41;99388.63;;;23.24;74.53
17230;BME280;8731;50.364;8.958;2023-07-29T19:31:03;99381.38;;;22.86;76.50
17230;BME280;8731;50.364;8.958;2023-07-29T19:35:27;99389.84;;;22.80;76.56
17230;BME280;8731;50.364;8.958;2023-07-29T19:39:51;99394.00;;;22.48;77.95
17230;BME280;8731;50.364;8.958;2023-07-29T19:44:14;99393.59;;;22.63;77.28
17230;BME280;8731;50.364;8.958;2023-07-29T19:48:37;99407.56;;;22.66;76.82
17230;BME280;8731;50.364;8.958;2023-07-29T19:53:01;99408.31;;;22.37;78.47
17230;BME280;8731;50.364;8.958;2023-07-29T19:57:23;99395.41;;;22.39;77.98
17230;BME280;8731;50.364;8.958;2023-07-29T20:01:46;99402.41;;;22.16;79.21
17230;BME280;8731;50.364;8.958;2023-07-29T20:06:08;99387.19;;;22.01;80.06
17230;BME280;8731;50.364;8.958;2023-07-29T20:10:33;99388.06;;;22.01;78.98
17230;BME280;8731;50.364;8.958;2023-07-29T20:14:56;99391.78;;;21.84;79.49
17230;BME280;8731;50.364;8.958;2023-07-29T20:19:22;99401.09;;;22.03;77.89
17230;BME280;8731;50.364;8.958;2023-07-29T20:23:44;99401.84;;;21.53;81.03
17230;BME280;8731;50.364;8.958;2023-07-29T20:28:10;99404.22;;;21.47;80.79
17230;BME280;8731;50.364;8.958;2023-07-29T20:32:35;99411.34;;;21.52;80.27
17230;BME280;8731;50.364;8.958;2023-07-29T20:36:58;99411.66;;;20.93;83.88
17230;BME280;8731;50.364;8.958;2023-07-29T20:41:20;99407.91;;;20.64;86.25
17230;BME280;8731;50.364;8.958;2023-07-29T20:45:45;99415.28;;;20.98;83.86
17230;BME280;8731;50.364;8.958;2023-07-29T20:50:08;99416.66;;;20.88;84.10
17230;BME280;8731;50.364;8.958;2023-07-29T20:54:30;99420.78;;;20.62;85.84
17230;BME280;8731;50.364;8.958;2023-07-29T20:58:54;99415.06;;;20.92;84.16
17230;BME280;8731;50.364;8.958;2023-07-29T21:03:19;99416.09;;;20.74;85.33
17230;BME280;8731;50.364;8.958;2023-07-29T21:07:41;99409.69;;;20.65;85.67
17230;BME280;8731;50.364;8.958;2023-07-29T21:12:04;99398.88;;;20.54;86.63
17230;BME280;8731;50.364;8.958;2023-07-29T21:16:29;99402.50;;;20.80;84.43
17230;BME280;8731;50.364;8.958;2023-07-29T21:20:52;99405.38;;;20.65;85.92
17230;BME280;8731;50.364;8.958;2023-07-29T21:25:15;99409.44;;;20.59;86.86
17230;BME280;8731;50.364;8.958;2023-07-29T21:29:38;99410.16;;;20.77;85.06
17230;BME280;8731;50.364;8.958;2023-07-29T21:34:00;99405.88;;;20.57;86.87
17230;BME280;8731;50.364;8.958;2023-07-29T21:38:24;99414.56;;;20.79;85.29
17230;BME280;8731;50.364;8.958;2023-07-29T21:42:46;99425.56;;;20.53;86.83
17230;BME280;8731;50.364;8.958;2023-07-29T21:47:09;99433.97;;;20.68;86.13
17230;BME280;8731;50.364;8.958;2023-07-29T21:51:32;99441.22;;;20.56;87.90
17230;BME280;8731;50.364;8.958;2023-07-29T21:55:56;99441.47;;;20.62;86.93
17230;BME280;8731;50.364;8.958;2023-07-29T22:00:21;99449.03;;;20.58;87.69
17230;BME280;8731;50.364;8.958;2023-07-29T22:04:44;99454.59;;;20.67;86.58
17230;BME280;8731;50.364;8.958;2023-07-29T22:09:07;99453.47;;;20.60;87.56
17230;BME280;8731;50.364;8.958;2023-07-29T22:13:30;99451.19;;;20.68;86.18
17230;BME280;8731;50.364;8.958;2023-07-29T22:17:55;99449.16;;;20.40;89.85
17230;BME280;8731;50.364;8.958;2023-07-29T22:22:17;99448.59;;;20.47;88.73
17230;BME280;8731;50.364;8.958;2023-07-29T22:26:40;99456.44;;;20.48;88.55
17230;BME280;8731;50.364;8.958;2023-07-29T22:31:05;99458.81;;;20.24;90.50
17230;BME280;8731;50.364;8.958;2023-07-29T22:35:28;99463.13;;;20.43;88.89
17230;BME280;8731;50.364;8.958;2023-07-29T22:39:51;99466.59;;;20.24;90.11
17230;BME280;8731;50.364;8.958;2023-07-29T22:44:14;99457.56;;;20.15;91.62
17230;BME280;8731;50.364;8.958;2023-07-29T22:48:38;99450.50;;;20.32;89.86
17230;BME280;8731;50.364;8.958;2023-07-29T22:53:00;99446.50;;;20.38;88.60
17230;BME280;8731;50.364;8.958;2023-07-29T22:57:23;99446.28;;;20.34;89.08
17230;BME280;8731;50.364;8.958;2023-07-29T23:01:45;99448.16;;;20.17;90.70
17230;BME280;8731;50.364;8.958;2023-07-29T23:06:09;99439.81;;;19.84;94.57
17230;BME280;8731;50.364;8.958;2023-07-29T23:10:32;99442.22;;;19.79;93.70
17230;BME280;8731;50.364;8.958;2023-07-29T23:14:56;99439.34;;;19.92;93.07
17230;BME280;8731;50.364;8.958;2023-07-29T23:19:19;99442.19;;;19.99;91.92
17230;BME280;8731;50.364;8.958;2023-07-29T23:23:43;99445.72;;;20.01;90.97
17230;BME280;8731;50.364;8.958;2023-07-29T23:28:06;99440.88;;;20.08;90.59